Heath, Kentucky
Current Conditions -  °F | °C
As of 12:53 AM on Sunday 21 Dec 2014 (Local Time) from KPAH Reporting Station
Clear Clear  
Wind Chill: 27°   Ceiling: Unl
Heat Index: 27°   Visibility: 10mi
Dew Point: 24°   Wind: 0mph
Humidity: 89%   Direction: NA
Pressure: 30.26"   Gusts: NA
Location:  37.0919°N, 88.7716°W
Report Text: KPAH 210653Z AUTO 00000KT 10SM CLR M03/M04 A3026 RMK AO2 SLP249 I1000 T10281044
Loading
Personal Weather Stations






























Interactive Weather Map New forecast layout! Learn more

10-Day Weather Forecast

Advertisements
Track Severe Weather on mobile